Guanajuato, Mexico

11:36 PM CST on November 25, 2014 (GMT -0600)
De Guanajuato International | Change Station
CLOSE
Current Station
Airport
Location: Del Bajio,
Elevation: 5968 ft
Nearby Weather Stations

Elev 5968 ft 20.99 °N, 101.48 °W | Updated 53 minutes ago

Scattered Clouds
Scattered Clouds
50 °F
Feels Like 50 °F
N
5
Wind Variable Wind from NE

Today
High -- | Low -- °F
--% Chance of Precip.
Yesterday
High -- | Low -- °F
Precip. -- in
7:01 AM 6:02 PM
Waxing Crescent, 16% visible
Pressure 30.41 in
Visibility 8.0 miles
Clouds Scattered Clouds 20000 ft
Dew Point 18 °F
Humidity 28%
Rainfall 0.00 in
Snow Depth Not available.
UV 0 out of 12
Pollen Not available.
Air Quality Not available.
Flu Activity Not available.
METAR MMLO 260443Z 04004KT 8SM SCT200 10/M08 A3041 RMK 8/002

More Conditions Fewer Conditions

Pressure 30.41 in
Visibility 8.0 miles
Clouds Scattered Clouds 20000 ft
Dew Point 18 °F
Humidity 28%
Rainfall 0.00 in
Snow Depth Not available.
UV 0 out of 12
Pollen Not available.
Air Quality Not available.
Flu Activity Not available.
METAR MMLO 260443Z 04004KT 8SM SCT200 10/M08 A3041 RMK 8/002

More Conditions Fewer Conditions

10-Day Weather Forecast

Almanac

Astronomy

Nov. 25, 2014 Rise Set
Actual Time
Civil Twilight
Nautical Twilight
Astronomical Twilight
Moon
Length of Visible Light
Length of Day
Tomorrow will be .
, % of the Moon is Illuminated

Today's Extremes

Country Highs Country Lows

Community

WunderPhotos

Upload Photos

1,773,683 photos uploaded!

WunderBlogs® & News

Nearby

Air Quality

  Air Quality AQ Index Pollutant
Not available.

Snow Depth

Station Depth Elevation

Earthquake Activity

City Distance Mag. Time & Date
Minimum magnitude displayed is 2.5.

Coastal Water Temperatures

Place Temperature

Nearby Weather Stations